Time;durP1;ratioP1;P1;durP2;ratioP2;P2;SDS_P1;SDS_P2;PMS_P1;PMS_P2;Temp;Humidity;BMP_temperature;BMP_pressure;BME280_temperature;BME280_humidity;BME280_pressure;Samples;Min_cycle;Max_cycle;Signal;HPM_P1;HPM_P2
2021/05/17 00:01:37;;;;;;;7.85;4.60;;;;;;;;;;5071973;28;20466;-70
2021/05/17 00:04:05;;;;;;;7.80;4.32;;;;;;;;;;5077963;28;20461;-69
2021/05/17 00:06:31;;;;;;;7.63;4.80;;;;;;;;;;5091983;28;20389;-69
2021/05/17 00:08:57;;;;;;;6.53;4.33;;;;;;;;;;5089971;28;20406;-69
2021/05/17 00:11:24;;;;;;;11.30;5.32;;;;;;;;;;5091934;28;20431;-69
2021/05/17 00:13:50;;;;;;;8.98;4.80;;;;;;;;;;5091781;28;20855;-69
2021/05/17 00:16:17;;;;;;;7.00;4.70;;;;;;;;;;5088328;28;20901;-69
2021/05/17 00:18:43;;;;;;;6.47;4.50;;;;;;;;;;5082140;28;20431;-69
2021/05/17 00:21:09;;;;;;;6.90;4.75;;;;;;;;;;5074426;28;20409;-69
2021/05/17 00:23:36;;;;;;;7.63;5.13;;;;;;;;;;5072402;28;20379;-69
2021/05/17 00:26:02;;;;;;;7.07;4.88;;;;;;;;;;5088802;28;20700;-69
2021/05/17 00:28:28;;;;;;;8.38;5.32;;;;;;;;;;5091989;28;20903;-69
2021/05/17 00:30:54;;;;;;;6.75;4.90;;;;;;;;;;5092168;28;20450;-69
2021/05/17 00:33:20;;;;;;;7.05;4.50;;;;;;;;;;5074265;28;20380;-69
2021/05/17 00:35:49;;;;;;;7.70;4.88;;;;;;;;;;5071722;28;20470;-69
2021/05/17 00:38:16;;;;;;;7.97;5.00;;;;;;;;;;5084635;28;20410;-69
2021/05/17 00:40:42;;;;;;;8.03;5.07;;;;;;;;;;5091140;28;20382;-69
2021/05/17 00:43:10;;;;;;;8.85;5.00;;;;;;;;;;5073408;28;20411;-69
2021/05/17 00:45:36;;;;;;;7.50;4.95;;;;;;;;;;5078426;28;20451;-69
2021/05/17 00:48:02;;;;;;;7.68;5.25;;;;;;;;;;5090614;28;20493;-69
2021/05/17 00:50:28;;;;;;;8.07;5.20;;;;;;;;;;5091449;28;20378;-69
2021/05/17 00:52:55;;;;;;;8.63;5.05;;;;;;;;;;5089526;28;20378;-69
2021/05/17 00:55:21;;;;;;;7.18;4.85;;;;;;;;;;5091652;28;20370;-69
2021/05/17 00:57:47;;;;;;;8.02;5.57;;;;;;;;;;5090846;28;20504;-68
2021/05/17 01:00:19;;;;;;;7.72;4.78;;;;;;;;;;5081179;28;20395;-69
2021/05/17 01:02:45;;;;;;;7.95;5.13;;;;;;;;;;5073879;28;21020;-69
2021/05/17 01:05:12;;;;;;;8.27;5.53;;;;;;;;;;5091219;28;21274;-69
2021/05/17 01:07:38;;;;;;;7.65;5.45;;;;;;;;;;5078918;28;20395;-69
2021/05/17 01:10:04;;;;;;;8.63;5.25;;;;;;;;;;5081478;28;20413;-68
2021/05/17 01:12:33;;;;;;;6.22;4.40;;;;;;;;;;5088521;28;20441;-70
2021/05/17 01:14:59;;;;;;;9.13;5.00;;;;;;;;;;5090083;28;20439;-69
2021/05/17 01:17:26;;;;;;;7.05;4.63;;;;;;;;;;5084257;28;20448;-69
2021/05/17 01:20:09;;;;;;;8.05;5.22;;;;;;;;;;5090326;28;20488;-69
2021/05/17 01:22:40;;;;;;;7.32;5.07;;;;;;;;;;5090859;28;20469;-69
2021/05/17 01:25:07;;;;;;;7.57;4.80;;;;;;;;;;5090450;28;20839;-69
2021/05/17 01:27:33;;;;;;;7.78;4.65;;;;;;;;;;5089178;28;20378;-69
2021/05/17 01:30:00;;;;;;;7.27;4.50;;;;;;;;;;5070838;28;20477;-68
2021/05/17 01:32:26;;;;;;;7.93;5.03;;;;;;;;;;5075440;28;20389;-69
2021/05/17 01:34:53;;;;;;;9.60;4.75;;;;;;;;;;5077178;28;20432;-69
2021/05/17 01:37:22;;;;;;;8.30;4.80;;;;;;;;;;5090742;28;20458;-69
2021/05/17 01:39:49;;;;;;;9.20;4.63;;;;;;;;;;5083965;28;20392;-69
2021/05/17 01:42:16;;;;;;;8.20;4.60;;;;;;;;;;5070483;28;20414;-68
2021/05/17 01:44:42;;;;;;;6.75;4.53;;;;;;;;;;5072357;28;20790;-69
2021/05/17 01:47:09;;;;;;;7.00;4.70;;;;;;;;;;5088981;28;20439;-69
2021/05/17 01:49:38;;;;;;;6.32;4.45;;;;;;;;;;5085287;28;20773;-69
2021/05/17 01:52:04;;;;;;;8.90;4.75;;;;;;;;;;5083084;28;20416;-69
2021/05/17 01:54:31;;;;;;;7.38;4.72;;;;;;;;;;5090051;28;20366;-69
2021/05/17 01:56:57;;;;;;;6.00;4.47;;;;;;;;;;5090099;28;20378;-68
2021/05/17 01:59:27;;;;;;;7.63;4.90;;;;;;;;;;5090105;28;20424;-68
2021/05/17 02:01:53;;;;;;;7.18;4.38;;;;;;;;;;5087552;28;20397;-69
2021/05/17 02:04:20;;;;;;;7.40;4.43;;;;;;;;;;5090121;28;20746;-69
2021/05/17 02:06:47;;;;;;;7.05;4.80;;;;;;;;;;5078255;28;20856;-69
2021/05/17 02:09:13;;;;;;;7.50;4.45;;;;;;;;;;5084335;28;20370;-69
2021/05/17 02:11:39;;;;;;;7.40;4.32;;;;;;;;;;5088401;28;20474;-69
2021/05/17 02:14:05;;;;;;;6.78;4.28;;;;;;;;;;5088912;28;20547;-69
2021/05/17 02:16:31;;;;;;;7.43;4.53;;;;;;;;;;5080501;28;20421;-69
2021/05/17 02:18:57;;;;;;;7.13;4.43;;;;;;;;;;5070723;28;20430;-70
2021/05/17 02:21:23;;;;;;;6.25;3.85;;;;;;;;;;5078430;28;20397;-69
2021/05/17 02:23:49;;;;;;;6.85;4.47;;;;;;;;;;5088960;28;20390;-69
2021/05/17 02:26:16;;;;;;;6.13;3.90;;;;;;;;;;5094107;28;20466;-69
2021/05/17 02:28:42;;;;;;;7.40;3.90;;;;;;;;;;5094092;28;20470;-69
2021/05/17 02:31:09;;;;;;;5.53;3.33;;;;;;;;;;5093769;28;20370;-69
2021/05/17 02:33:35;;;;;;;5.97;3.75;;;;;;;;;;5074820;28;20698;-69
2021/05/17 02:36:01;;;;;;;5.70;3.60;;;;;;;;;;5073872;28;20367;-69
2021/05/17 02:38:27;;;;;;;6.25;3.75;;;;;;;;;;5073780;28;20915;-69
2021/05/17 02:40:53;;;;;;;5.43;3.80;;;;;;;;;;5081172;28;20362;-69
2021/05/17 02:43:23;;;;;;;6.43;3.53;;;;;;;;;;5092910;28;20406;-69
2021/05/17 02:45:49;;;;;;;5.20;3.63;;;;;;;;;;5078053;28;20872;-68
2021/05/17 02:48:16;;;;;;;6.03;3.50;;;;;;;;;;5073649;28;20368;-69
2021/05/17 02:50:44;;;;;;;6.28;3.38;;;;;;;;;;5083585;28;20397;-69
2021/05/17 02:53:22;;;;;;;6.05;3.45;;;;;;;;;;5093591;28;20378;-69
2021/05/17 02:55:50;;;;;;;6.22;3.92;;;;;;;;;;5093598;28;20378;-69
2021/05/17 02:58:21;;;;;;;6.90;3.25;;;;;;;;;;5082717;28;20407;-69
2021/05/17 03:00:50;;;;;;;4.60;3.05;;;;;;;;;;5073203;28;20383;-69
2021/05/17 03:03:17;;;;;;;5.70;3.22;;;;;;;;;;5091716;28;20836;-69
2021/05/17 03:05:44;;;;;;;5.55;3.40;;;;;;;;;;5093604;28;20370;-69
2021/05/17 03:08:15;;;;;;;5.95;3.15;;;;;;;;;;5092756;28;20403;-69
2021/05/17 03:10:45;;;;;;;5.43;3.50;;;;;;;;;;5093191;28;20515;-69
2021/05/17 03:13:12;;;;;;;5.90;3.60;;;;;;;;;;5085544;28;20416;-69
2021/05/17 03:15:39;;;;;;;6.25;3.80;;;;;;;;;;5081831;28;20456;-69
2021/05/17 03:18:06;;;;;;;6.60;3.80;;;;;;;;;;5073113;28;20415;-69
2021/05/17 03:20:33;;;;;;;5.63;3.40;;;;;;;;;;5076745;28;20477;-68
2021/05/17 03:22:59;;;;;;;6.72;3.80;;;;;;;;;;5092476;28;20415;-69
2021/05/17 03:25:27;;;;;;;6.20;3.60;;;;;;;;;;5082785;28;21080;-69
2021/05/17 03:27:53;;;;;;;5.93;3.85;;;;;;;;;;5072860;28;20414;-69
2021/05/17 03:30:20;;;;;;;6.60;3.65;;;;;;;;;;5083145;28;20378;-69
2021/05/17 03:32:47;;;;;;;6.75;3.83;;;;;;;;;;5090591;28;20393;-69
2021/05/17 03:35:13;;;;;;;6.53;3.72;;;;;;;;;;5092997;28;20371;-69
2021/05/17 03:37:39;;;;;;;6.93;4.10;;;;;;;;;;5092176;28;20512;-69
2021/05/17 03:40:06;;;;;;;7.55;4.15;;;;;;;;;;5087463;28;20462;-68
2021/05/17 03:42:32;;;;;;;7.47;4.15;;;;;;;;;;5071855;28;20504;-68
2021/05/17 03:44:58;;;;;;;7.35;4.07;;;;;;;;;;5076729;28;20415;-68
2021/05/17 03:47:24;;;;;;;5.47;3.63;;;;;;;;;;5088673;28;20397;-68
2021/05/17 03:49:49;;;;;;;10.10;4.37;;;;;;;;;;5082193;28;20475;-68
2021/05/17 03:52:15;;;;;;;8.43;5.00;;;;;;;;;;5071745;28;20828;-68
2021/05/17 03:54:41;;;;;;;7.60;4.72;;;;;;;;;;5072637;28;20364;-68
2021/05/17 03:57:08;;;;;;;7.32;4.57;;;;;;;;;;5073930;28;20817;-69
2021/05/17 03:59:34;;;;;;;8.18;4.72;;;;;;;;;;5072436;28;20459;-68
2021/05/17 04:02:00;;;;;;;8.63;5.05;;;;;;;;;;5078829;28;20378;-68
2021/05/17 04:04:28;;;;;;;7.57;4.93;;;;;;;;;;5091839;28;20439;-68
2021/05/17 04:07:03;;;;;;;7.57;4.85;;;;;;;;;;5080817;28;20388;-68
2021/05/17 04:14:58;;;;;;;6.87;4.67;;;;;;;;;;5088899;28;20433;-68
2021/05/17 04:17:24;;;;;;;8.38;4.80;;;;;;;;;;5073552;28;20496;-68
2021/05/17 04:19:52;;;;;;;7.95;5.18;;;;;;;;;;5091553;28;20457;-68
2021/05/17 04:22:18;;;;;;;8.40;4.60;;;;;;;;;;5088461;28;20909;-68
2021/05/17 04:24:43;;;;;;;6.93;4.47;;;;;;;;;;5071845;28;20403;-68
2021/05/17 04:27:09;;;;;;;6.82;4.50;;;;;;;;;;5078823;28;20816;-68
2021/05/17 04:29:35;;;;;;;8.02;5.00;;;;;;;;;;5092116;28;20400;-68
2021/05/17 04:32:01;;;;;;;8.88;4.90;;;;;;;;;;5090814;28;20378;-68
2021/05/17 04:34:29;;;;;;;8.45;4.90;;;;;;;;;;5092191;28;20379;-68
2021/05/17 04:36:55;;;;;;;7.53;4.70;;;;;;;;;;5086450;28;20463;-68
2021/05/17 04:39:21;;;;;;;8.23;4.88;;;;;;;;;;5080642;28;20398;-69
2021/05/17 04:41:47;;;;;;;6.93;4.65;;;;;;;;;;5090392;28;20386;-69
2021/05/17 04:44:13;;;;;;;7.43;4.80;;;;;;;;;;5091128;28;20389;-68
2021/05/17 04:46:39;;;;;;;8.20;4.85;;;;;;;;;;5074467;28;20415;-68
2021/05/17 04:49:05;;;;;;;8.82;5.15;;;;;;;;;;5071510;28;20466;-69
2021/05/17 04:51:30;;;;;;;7.97;4.90;;;;;;;;;;5072869;28;20415;-68
2021/05/17 04:53:56;;;;;;;7.82;4.80;;;;;;;;;;5091493;28;20397;-68
2021/05/17 04:56:22;;;;;;;7.80;5.00;;;;;;;;;;5088029;28;20409;-69
2021/05/17 04:58:50;;;;;;;7.88;5.38;;;;;;;;;;5073106;28;20419;-68
2021/05/17 05:01:16;;;;;;;9.13;5.20;;;;;;;;;;5071496;28;20384;-68
2021/05/17 05:03:42;;;;;;;7.82;4.90;;;;;;;;;;5090790;28;20397;-68
2021/05/17 05:06:08;;;;;;;8.43;5.07;;;;;;;;;;5084336;28;20438;-69
2021/05/17 05:08:33;;;;;;;8.38;4.93;;;;;;;;;;5089125;28;20396;-69
2021/05/17 05:10:59;;;;;;;8.80;5.10;;;;;;;;;;5071133;28;20386;-68
2021/05/17 05:13:25;;;;;;;9.25;5.28;;;;;;;;;;5083948;28;20387;-69
2021/05/17 05:15:52;;;;;;;8.75;4.97;;;;;;;;;;5077993;28;20390;-69
2021/05/17 05:18:19;;;;;;;8.15;4.72;;;;;;;;;;5090966;28;20410;-69
2021/05/17 05:20:44;;;;;;;9.35;5.40;;;;;;;;;;5080648;28;20889;-68
2021/05/17 05:23:17;;;;;;;10.80;5.53;;;;;;;;;;5087230;28;20389;-68
2021/05/17 05:28:25;;;;;;;9.77;5.30;;;;;;;;;;5072629;28;20418;-69
2021/05/17 05:31:00;;;;;;;8.60;5.15;;;;;;;;;;5078033;28;20377;-68
2021/05/17 05:33:26;;;;;;;9.07;5.28;;;;;;;;;;5080737;28;20383;-70
2021/05/17 05:35:54;;;;;;;10.02;4.90;;;;;;;;;;5088378;28;20832;-69
2021/05/17 05:38:20;;;;;;;8.57;5.18;;;;;;;;;;5073456;28;20489;-69
2021/05/17 05:40:46;;;;;;;10.15;5.32;;;;;;;;;;5073315;28;20805;-68
2021/05/17 05:43:12;;;;;;;9.97;5.63;;;;;;;;;;5071183;28;20475;-69
2021/05/17 05:45:45;;;;;;;8.82;5.38;;;;;;;;;;5075432;28;20409;-68
2021/05/17 05:48:11;;;;;;;9.10;5.05;;;;;;;;;;5072812;28;20418;-69
2021/05/17 05:50:38;;;;;;;8.57;5.28;;;;;;;;;;5083627;28;20479;-69
2021/05/17 05:53:04;;;;;;;9.05;5.05;;;;;;;;;;5086925;28;20386;-68
2021/05/17 05:55:30;;;;;;;9.70;5.00;;;;;;;;;;5090300;28;20401;-68
2021/05/17 05:57:57;;;;;;;8.38;4.63;;;;;;;;;;5083558;28;20486;-68
2021/05/17 06:00:29;;;;;;;8.07;4.60;;;;;;;;;;5090142;28;20374;-68
2021/05/17 06:02:55;;;;;;;8.70;5.22;;;;;;;;;;5079870;28;20404;-69
2021/05/17 06:05:21;;;;;;;7.50;4.82;;;;;;;;;;5079143;28;20406;-68
2021/05/17 06:07:47;;;;;;;7.28;4.57;;;;;;;;;;5086321;28;20389;-69
2021/05/17 06:10:13;;;;;;;8.18;4.80;;;;;;;;;;5079106;28;20873;-68
2021/05/17 06:12:40;;;;;;;8.60;4.75;;;;;;;;;;5070004;28;20407;-68
2021/05/17 06:15:07;;;;;;;8.80;4.88;;;;;;;;;;5073923;28;20404;-68
2021/05/17 06:17:33;;;;;;;7.50;4.75;;;;;;;;;;5080165;28;20413;-68
2021/05/17 06:19:59;;;;;;;9.40;5.20;;;;;;;;;;5089939;28;21096;-68
2021/05/17 06:22:26;;;;;;;8.05;4.55;;;;;;;;;;5079422;28;20407;-69
2021/05/17 06:24:57;;;;;;;8.13;4.45;;;;;;;;;;5089732;28;20381;-69
2021/05/17 06:27:24;;;;;;;8.23;4.50;;;;;;;;;;5086374;28;20401;-68
2021/05/17 06:29:55;;;;;;;8.90;5.00;;;;;;;;;;5076833;28;20390;-68
2021/05/17 06:32:22;;;;;;;8.77;4.70;;;;;;;;;;5076536;28;20394;-68
2021/05/17 06:34:48;;;;;;;8.13;4.70;;;;;;;;;;5089317;28;20386;-68
2021/05/17 06:37:14;;;;;;;6.57;4.20;;;;;;;;;;5087905;28;20394;-69
2021/05/17 06:39:40;;;;;;;8.07;4.82;;;;;;;;;;5080239;28;20737;-68
2021/05/17 06:42:07;;;;;;;7.57;4.68;;;;;;;;;;5086075;28;20418;-68
2021/05/17 06:44:33;;;;;;;8.15;4.68;;;;;;;;;;5089177;28;20406;-68
2021/05/17 06:47:00;;;;;;;8.30;4.32;;;;;;;;;;5083597;28;20378;-68
2021/05/17 06:49:27;;;;;;;8.20;4.68;;;;;;;;;;5076324;28;20417;-70
2021/05/17 06:51:54;;;;;;;10.63;5.50;;;;;;;;;;5083441;28;21402;-69
2021/05/17 06:54:24;;;;;;;8.10;4.68;;;;;;;;;;5075229;28;20432;-69
2021/05/17 06:57:01;;;;;;;8.18;5.03;;;;;;;;;;5076455;28;20406;-68
2021/05/17 06:59:27;;;;;;;6.40;4.15;;;;;;;;;;5085266;28;20414;-69
2021/05/17 07:01:55;;;;;;;7.80;4.40;;;;;;;;;;5078333;28;20856;-68
2021/05/17 07:04:22;;;;;;;9.63;4.97;;;;;;;;;;5081271;28;21123;-68
2021/05/17 07:06:55;;;;;;;8.02;4.28;;;;;;;;;;5079835;28;20409;-68
2021/05/17 07:12:12;;;;;;;7.57;4.18;;;;;;;;;;5086907;28;20405;-69
2021/05/17 07:14:38;;;;;;;8.63;4.38;;;;;;;;;;5076148;28;20402;-68
2021/05/17 07:17:06;;;;;;;7.78;4.47;;;;;;;;;;5083980;28;20492;-68
2021/05/17 07:19:32;;;;;;;6.45;3.90;;;;;;;;;;5088905;28;20399;-69
2021/05/17 07:24:43;;;;;;;8.80;4.13;;;;;;;;;;5089028;28;20452;-69
2021/05/17 07:27:09;;;;;;;7.63;4.07;;;;;;;;;;5088384;28;20393;-69
2021/05/17 07:29:37;;;;;;;7.72;4.18;;;;;;;;;;5096878;28;20425;-68
2021/05/17 07:32:08;;;;;;;6.63;3.67;;;;;;;;;;5091369;28;20855;-69
2021/05/17 07:34:35;;;;;;;7.50;3.80;;;;;;;;;;5090552;28;20415;-69
2021/05/17 07:37:01;;;;;;;7.97;3.53;;;;;;;;;;5088714;28;20920;-69
2021/05/17 07:39:27;;;;;;;6.35;3.58;;;;;;;;;;5077833;28;20430;-68
2021/05/17 07:41:53;;;;;;;7.70;4.15;;;;;;;;;;5089234;28;20387;-68
2021/05/17 07:44:19;;;;;;;8.27;4.18;;;;;;;;;;5090119;28;20875;-69
2021/05/17 07:46:45;;;;;;;7.40;5.23;;;;;;;;;;5081998;28;20439;-68
2021/05/17 07:49:17;;;;;;;8.43;4.60;;;;;;;;;;5087917;28;20919;-69
2021/05/17 07:51:44;;;;;;;8.05;5.00;;;;;;;;;;5086243;28;20393;-71
2021/05/17 07:54:11;;;;;;;6.97;5.07;;;;;;;;;;5089630;28;20394;-69
2021/05/17 07:56:37;;;;;;;8.73;4.93;;;;;;;;;;5088635;28;20378;-69
2021/05/17 07:59:04;;;;;;;7.10;4.68;;;;;;;;;;5086713;28;20433;-70
2021/05/17 08:01:30;;;;;;;7.75;4.90;;;;;;;;;;5085267;28;20382;-71
2021/05/17 08:03:56;;;;;;;9.00;5.45;;;;;;;;;;5086896;28;20850;-69
2021/05/17 08:06:24;;;;;;;8.87;5.10;;;;;;;;;;5087045;28;20447;-69
2021/05/17 08:08:50;;;;;;;8.90;4.47;;;;;;;;;;5086987;28;20533;-70
2021/05/17 08:11:16;;;;;;;7.72;4.20;;;;;;;;;;5072619;28;20400;-68
2021/05/17 08:13:42;;;;;;;10.93;4.83;;;;;;;;;;5086838;28;21155;-69
2021/05/17 08:16:09;;;;;;;8.23;4.55;;;;;;;;;;5079054;28;20399;-68
2021/05/17 08:18:35;;;;;;;7.50;4.57;;;;;;;;;;5076302;28;20415;-68
2021/05/17 08:21:02;;;;;;;8.02;4.90;;;;;;;;;;5079641;28;20491;-68
2021/05/17 08:23:28;;;;;;;11.40;4.80;;;;;;;;;;5076507;28;20728;-69
2021/05/17 08:25:54;;;;;;;11.38;4.75;;;;;;;;;;5085585;28;20965;-68
2021/05/17 08:28:20;;;;;;;8.10;4.15;;;;;;;;;;5081338;28;20475;-67
2021/05/17 08:30:53;;;;;;;8.13;4.00;;;;;;;;;;5076406;28;20585;-69
2021/05/17 08:33:19;;;;;;;8.85;4.72;;;;;;;;;;5082216;28;20420;-68
2021/05/17 08:35:46;;;;;;;8.60;4.70;;;;;;;;;;5080201;28;20393;-68
2021/05/17 08:38:12;;;;;;;8.35;4.80;;;;;;;;;;5076899;28;20432;-69
2021/05/17 08:40:39;;;;;;;8.30;4.40;;;;;;;;;;5078733;28;20905;-68
2021/05/17 08:43:06;;;;;;;10.70;4.85;;;;;;;;;;5075045;28;21909;-69
2021/05/17 08:45:33;;;;;;;9.00;4.32;;;;;;;;;;5071398;28;20498;-69
2021/05/17 08:47:59;;;;;;;8.82;4.18;;;;;;;;;;5078835;28;20411;-69
2021/05/17 08:50:25;;;;;;;10.50;4.38;;;;;;;;;;5082744;28;20413;-69
2021/05/17 08:52:52;;;;;;;9.63;5.22;;;;;;;;;;5073170;28;20794;-68
2021/05/17 08:55:18;;;;;;;8.52;4.63;;;;;;;;;;5079671;28;20462;-68
2021/05/17 08:57:45;;;;;;;9.75;4.80;;;;;;;;;;5074901;28;20423;-68
2021/05/17 09:00:12;;;;;;;10.50;4.90;;;;;;;;;;5076675;28;20406;-69
2021/05/17 09:02:38;;;;;;;9.77;4.63;;;;;;;;;;5078099;28;20406;-69
2021/05/17 09:05:07;;;;;;;11.27;4.78;;;;;;;;;;5086011;28;20410;-69
2021/05/17 09:07:34;;;;;;;9.10;4.78;;;;;;;;;;5077107;28;20497;-69
2021/05/17 09:10:12;;;;;;;9.02;4.55;;;;;;;;;;5073653;28;20382;-68
2021/05/17 09:12:51;;;;;;;13.52;4.93;;;;;;;;;;5077359;28;20434;-69
2021/05/17 09:15:17;;;;;;;11.63;4.55;;;;;;;;;;5075189;28;20392;-68
2021/05/17 09:18:04;;;;;;;9.43;5.05;;;;;;;;;;5075080;28;20513;-69
2021/05/17 09:20:37;;;;;;;9.10;4.95;;;;;;;;;;5074497;28;20445;-68
2021/05/17 09:23:07;;;;;;;9.07;4.55;;;;;;;;;;5083239;28;20402;-68
2021/05/17 09:25:33;;;;;;;9.02;4.28;;;;;;;;;;5089642;28;20782;-69
2021/05/17 09:28:08;;;;;;;10.02;4.20;;;;;;;;;;5090542;28;20374;-69
2021/05/17 09:30:50;;;;;;;9.07;5.15;;;;;;;;;;5090834;28;20397;-69
2021/05/17 09:33:20;;;;;;;9.18;4.40;;;;;;;;;;5090501;28;20374;-69
2021/05/17 09:35:47;;;;;;;9.02;4.50;;;;;;;;;;5090748;28;20700;-69
2021/05/17 09:38:22;;;;;;;9.32;4.68;;;;;;;;;;5090996;28;20441;-69
2021/05/17 09:40:58;;;;;;;7.78;4.30;;;;;;;;;;5074946;28;20379;-69
2021/05/17 09:43:24;;;;;;;7.88;4.15;;;;;;;;;;5069874;28;20494;-68
2021/05/17 09:45:50;;;;;;;10.60;4.83;;;;;;;;;;5077577;28;20469;-68
2021/05/17 09:48:20;;;;;;;9.63;4.65;;;;;;;;;;5080953;28;20486;-69
2021/05/17 09:50:55;;;;;;;7.70;4.50;;;;;;;;;;5090660;28;20469;-69
2021/05/17 09:53:25;;;;;;;9.40;4.32;;;;;;;;;;5077124;28;20499;-68
2021/05/17 09:55:51;;;;;;;9.20;4.45;;;;;;;;;;5079510;28;21045;-69
2021/05/17 09:58:37;;;;;;;7.00;3.78;;;;;;;;;;5077251;28;20429;-69
2021/05/17 10:01:10;;;;;;;8.85;4.40;;;;;;;;;;5078318;28;20438;-69
2021/05/17 10:03:48;;;;;;;6.22;4.13;;;;;;;;;;5079967;28;20490;-68
2021/05/17 10:06:18;;;;;;;9.93;4.88;;;;;;;;;;5079639;28;20398;-69
2021/05/17 10:08:46;;;;;;;7.95;4.55;;;;;;;;;;5083650;28;20409;-70
2021/05/17 10:11:12;;;;;;;7.32;4.78;;;;;;;;;;5085381;28;20398;-69
2021/05/17 10:13:39;;;;;;;8.88;4.68;;;;;;;;;;5076547;28;20477;-69
2021/05/17 10:16:06;;;;;;;7.97;4.60;;;;;;;;;;5068046;28;20970;-69
2021/05/17 10:18:33;;;;;;;8.43;5.35;;;;;;;;;;5070596;28;20681;-70
2021/05/17 10:20:59;;;;;;;9.38;5.35;;;;;;;;;;5078002;28;20486;-69
2021/05/17 10:23:26;;;;;;;8.40;5.53;;;;;;;;;;5073783;28;20413;-71
2021/05/17 10:25:52;;;;;;;10.33;6.03;;;;;;;;;;5073290;28;20397;-69
2021/05/17 10:28:24;;;;;;;8.40;5.80;;;;;;;;;;5074286;28;20388;-69
2021/05/17 10:30:50;;;;;;;9.05;5.78;;;;;;;;;;5085276;28;20388;-69
2021/05/17 10:33:21;;;;;;;8.23;5.07;;;;;;;;;;5074056;28;20452;-69
2021/05/17 10:35:48;;;;;;;8.75;5.53;;;;;;;;;;5077383;28;20863;-69
2021/05/17 10:38:16;;;;;;;8.60;5.38;;;;;;;;;;5075926;28;20560;-69
2021/05/17 10:40:45;;;;;;;8.07;5.55;;;;;;;;;;5076138;28;20383;-69
2021/05/17 10:43:29;;;;;;;8.48;5.13;;;;;;;;;;5084379;28;20440;-69
2021/05/17 10:46:54;;;;;;;9.30;5.25;;;;;;;;;;5086053;28;20391;-69
2021/05/17 10:49:13;;;;;;;8.52;5.82;;;;;;;;;;5077176;28;20485;-69
2021/05/17 10:51:39;;;;;;;6.70;4.70;;;;;;;;;;5077707;28;20456;-69
2021/05/17 10:54:20;;;;;;;8.50;5.50;;;;;;;;;;5088444;28;20401;-69
2021/05/17 11:02:15;;;;;;;8.00;6.00;;;;;;;;;;5093033;28;20469;-70
2021/05/17 11:04:42;;;;;;;8.30;6.10;;;;;;;;;;5078723;28;20382;-69
2021/05/17 11:07:24;;;;;;;7.20;5.50;;;;;;;;;;5092533;28;20407;-69
2021/05/17 11:09:54;;;;;;;6.82;5.00;;;;;;;;;;5092895;28;20370;-69
2021/05/17 11:12:20;;;;;;;7.20;4.32;;;;;;;;;;5078896;28;20449;-70
2021/05/17 11:15:03;;;;;;;6.45;4.07;;;;;;;;;;5078992;28;20826;-70
2021/05/17 11:17:30;;;;;;;4.93;3.40;;;;;;;;;;5084340;28;20471;-69
2021/05/17 11:19:56;;;;;;;4.38;2.65;;;;;;;;;;5069389;28;20407;-69
2021/05/17 11:22:42;;;;;;;4.72;2.58;;;;;;;;;;5070598;28;20407;-69
2021/05/17 11:25:08;;;;;;;4.22;2.38;;;;;;;;;;5081255;28;20409;-70
2021/05/17 11:27:48;;;;;;;3.37;2.10;;;;;;;;;;5079860;28;20389;-69
2021/05/17 11:30:33;;;;;;;3.20;1.80;;;;;;;;;;5077836;28;20714;-69
2021/05/17 11:33:15;;;;;;;4.10;1.83;;;;;;;;;;5071910;28;20398;-70
2021/05/17 11:36:19;;;;;;;3.10;1.90;;;;;;;;;;5080309;28;20406;-68
2021/05/17 11:39:04;;;;;;;3.28;1.70;;;;;;;;;;5027103;28;20530;-69
2021/05/17 11:41:31;;;;;;;4.03;1.80;;;;;;;;;;5027275;28;20411;-69
2021/05/17 11:44:16;;;;;;;3.10;1.83;;;;;;;;;;5062946;28;20454;-69
2021/05/17 11:46:47;;;;;;;3.65;1.85;;;;;;;;;;5078493;28;20516;-69
2021/05/17 11:49:14;;;;;;;4.20;2.00;;;;;;;;;;5080766;28;20422;-68
2021/05/17 11:51:41;;;;;;;3.85;2.53;;;;;;;;;;5092457;28;20837;-70
2021/05/17 11:54:08;;;;;;;5.93;3.17;;;;;;;;;;5082206;28;20384;-69
2021/05/17 11:56:38;;;;;;;5.90;3.22;;;;;;;;;;5089383;28;20470;-69
2021/05/17 11:59:05;;;;;;;6.20;3.40;;;;;;;;;;5076010;28;20407;-69
2021/05/17 12:01:31;;;;;;;5.10;3.30;;;;;;;;;;5075162;28;20390;-69
2021/05/17 12:04:10;;;;;;;5.28;3.20;;;;;;;;;;5078030;28;20489;-69
2021/05/17 12:06:40;;;;;;;6.35;3.28;;;;;;;;;;5081625;28;20398;-70
2021/05/17 12:09:06;;;;;;;5.93;3.40;;;;;;;;;;5081429;28;20406;-68
2021/05/17 12:11:32;;;;;;;7.45;4.60;;;;;;;;;;5074762;28;20394;-69
2021/05/17 12:14:09;;;;;;;7.75;4.18;;;;;;;;;;5084319;28;20415;-68
2021/05/17 12:16:35;;;;;;;9.65;4.90;;;;;;;;;;5076108;28;20454;-69
2021/05/17 12:19:03;;;;;;;11.03;5.80;;;;;;;;;;5089102;28;20414;-71
2021/05/17 12:21:47;;;;;;;7.72;5.10;;;;;;;;;;5088404;28;20382;-67
2021/05/17 12:24:23;;;;;;;8.60;5.43;;;;;;;;;;5079430;28;20403;-69
2021/05/17 12:26:51;;;;;;;7.40;4.93;;;;;;;;;;5085244;28;21124;-69
2021/05/17 12:29:18;;;;;;;7.00;4.67;;;;;;;;;;5076366;28;20480;-68
2021/05/17 12:31:44;;;;;;;6.40;4.65;;;;;;;;;;5076692;28;20707;-69
2021/05/17 12:34:10;;;;;;;7.00;4.80;;;;;;;;;;5083014;28;21059;-69
2021/05/17 12:36:36;;;;;;;8.75;5.80;;;;;;;;;;5082955;28;20487;-68
2021/05/17 12:39:03;;;;;;;8.07;5.90;;;;;;;;;;5078765;28;20511;-68
2021/05/17 12:41:33;;;;;;;11.00;7.93;;;;;;;;;;5078198;28;20396;-69
2021/05/17 12:43:59;;;;;;;11.52;8.27;;;;;;;;;;5073249;28;20773;-68
2021/05/17 12:46:28;;;;;;;10.10;7.10;;;;;;;;;;5079284;28;20394;-69
2021/05/17 12:48:56;;;;;;;9.15;6.97;;;;;;;;;;5079786;28;20407;-68
2021/05/17 12:51:24;;;;;;;7.75;5.90;;;;;;;;;;5075627;28;20411;-70
2021/05/17 12:53:51;;;;;;;7.28;5.22;;;;;;;;;;5074364;28;20415;-69
2021/05/17 12:56:24;;;;;;;7.30;5.30;;;;;;;;;;5082341;28;20486;-69
2021/05/17 12:58:50;;;;;;;8.47;5.53;;;;;;;;;;5077751;28;20413;-69
2021/05/17 13:01:17;;;;;;;5.82;4.20;;;;;;;;;;5070269;28;20480;-70
2021/05/17 13:03:44;;;;;;;10.32;3.92;;;;;;;;;;5076670;28;20402;-69
2021/05/17 13:06:11;;;;;;;5.50;3.40;;;;;;;;;;5078159;28;20396;-68
2021/05/17 13:08:37;;;;;;;6.13;4.00;;;;;;;;;;5078865;28;20390;-68
2021/05/17 13:11:05;;;;;;;8.20;4.43;;;;;;;;;;5084506;28;20398;-68
2021/05/17 13:13:50;;;;;;;6.90;4.10;;;;;;;;;;5075592;28;20405;-67
2021/05/17 13:16:24;;;;;;;5.70;4.00;;;;;;;;;;5087284;28;20394;-70
2021/05/17 13:30:32;;;;;;;6.78;4.97;;;;;;;;;;5082756;28;20414;-68
2021/05/17 13:32:58;;;;;;;7.93;4.53;;;;;;;;;;5075172;28;20872;-69
2021/05/17 13:35:24;;;;;;;9.40;6.07;;;;;;;;;;5076756;28;20390;-69
2021/05/17 13:37:50;;;;;;;8.18;6.18;;;;;;;;;;5076686;28;20428;-68
2021/05/17 13:40:16;;;;;;;8.02;5.30;;;;;;;;;;5085262;28;20394;-68
2021/05/17 13:42:43;;;;;;;7.97;5.28;;;;;;;;;;5087349;28;20443;-68
2021/05/17 13:45:10;;;;;;;8.63;5.70;;;;;;;;;;5075546;28;20475;-68
2021/05/17 13:47:36;;;;;;;9.00;6.32;;;;;;;;;;5083559;28;20387;-68
2021/05/17 13:50:03;;;;;;;9.00;6.13;;;;;;;;;;5082959;28;20743;-68
2021/05/17 13:52:30;;;;;;;10.32;6.20;;;;;;;;;;5080511;28;20385;-69
2021/05/17 13:54:56;;;;;;;8.03;5.50;;;;;;;;;;5083544;28;20398;-68
2021/05/17 13:57:22;;;;;;;7.90;6.13;;;;;;;;;;5098508;28;20428;-70
2021/05/17 13:59:48;;;;;;;11.45;7.35;;;;;;;;;;5085190;28;20398;-67
2021/05/17 14:02:14;;;;;;;8.15;6.57;;;;;;;;;;5077764;28;20757;-69
2021/05/17 14:04:40;;;;;;;8.82;7.82;;;;;;;;;;5077662;28;20391;-68
2021/05/17 14:07:06;;;;;;;9.75;7.97;;;;;;;;;;5084306;28;20427;-68
2021/05/17 14:09:32;;;;;;;9.20;7.50;;;;;;;;;;5076002;28;20450;-69
2021/05/17 14:11:59;;;;;;;7.38;6.40;;;;;;;;;;5076413;28;20435;-68
2021/05/17 14:14:26;;;;;;;8.25;6.57;;;;;;;;;;5072448;28;20476;-68
2021/05/17 14:16:56;;;;;;;7.85;6.05;;;;;;;;;;5086126;28;20488;-69
2021/05/17 14:19:23;;;;;;;8.18;6.00;;;;;;;;;;5074326;28;20455;-68
2021/05/17 14:21:49;;;;;;;8.60;5.67;;;;;;;;;;5075183;28;20390;-69
2021/05/17 14:24:15;;;;;;;6.90;5.30;;;;;;;;;;5076080;28;20433;-68
2021/05/17 14:26:41;;;;;;;6.72;4.95;;;;;;;;;;5082772;28;20437;-69
2021/05/17 14:29:07;;;;;;;6.35;4.90;;;;;;;;;;5083615;28;20390;-68
2021/05/17 14:31:33;;;;;;;7.00;4.80;;;;;;;;;;5073496;28;20459;-68
2021/05/17 14:34:02;;;;;;;8.63;4.68;;;;;;;;;;5080346;28;20486;-69
2021/05/17 14:36:29;;;;;;;9.77;5.00;;;;;;;;;;5078341;28;20374;-68
2021/05/17 14:38:55;;;;;;;6.57;4.35;;;;;;;;;;5102279;28;20505;-68
2021/05/17 14:41:21;;;;;;;6.70;4.05;;;;;;;;;;5089800;28;20442;-68
2021/05/17 14:43:47;;;;;;;7.03;3.97;;;;;;;;;;5108914;28;20443;-68
2021/05/17 14:46:15;;;;;;;7.30;3.77;;;;;;;;;;5087762;28;20861;-68
2021/05/17 14:48:41;;;;;;;6.53;3.92;;;;;;;;;;5087432;28;20401;-69
2021/05/17 14:51:07;;;;;;;7.47;4.00;;;;;;;;;;5086897;28;20878;-69
2021/05/17 14:53:33;;;;;;;6.90;3.55;;;;;;;;;;5072548;28;20390;-68
2021/05/17 14:55:59;;;;;;;6.63;3.55;;;;;;;;;;5088831;28;20445;-68
2021/05/17 14:58:25;;;;;;;7.63;3.30;;;;;;;;;;5089453;28;20418;-69
2021/05/17 15:00:51;;;;;;;9.85;3.58;;;;;;;;;;5090891;28;20882;-68
2021/05/17 15:03:17;;;;;;;5.35;3.55;;;;;;;;;;5077281;28;20386;-68
2021/05/17 15:05:43;;;;;;;7.55;3.90;;;;;;;;;;5090510;28;20443;-68
2021/05/17 15:08:11;;;;;;;7.25;3.75;;;;;;;;;;5086363;28;20393;-68
2021/05/17 15:10:37;;;;;;;7.72;3.97;;;;;;;;;;5084481;28;20451;-69
2021/05/17 15:13:03;;;;;;;8.33;4.03;;;;;;;;;;5077845;28;20457;-69
2021/05/17 15:15:30;;;;;;;8.17;4.20;;;;;;;;;;5073611;28;20430;-68
2021/05/17 15:17:56;;;;;;;7.88;4.35;;;;;;;;;;5084839;28;20417;-69
2021/05/17 15:20:23;;;;;;;7.15;4.32;;;;;;;;;;5074693;28;20483;-70